Waterkloof Air Force Base

Jump to: basic info | weather | frequencies | runways | comments

Related pages: nearby airports | nearby navaids | notams | map

Basic information (top)

Codes: WKF FAWK
Location: lon -25.830000, lat 28.222500, elev 4,940 ft / 1,506 m msl
Status: medium_airport
Scheduled airline service: no
Links: Wikipedia Mobile

Weather (top)

Current conditions (rec'd 2014/07/31 20:00Z):

FAWK 312000Z AUTO 15004KT //// // ////// 10/M01 Q1028

Airport forecast (rec'd 2014/07/14 04:00Z):

TAF FAWK 140300Z 1404/1415 18007KT CAVOK 
      BECMG 1408/1410 07006KT 
      BECMG 1410/1412 35008KT TX19/1412ZTN03/1404Z

Frequencies (top)

Verify before use: may be inaccurate or out of date.

APP: 134.4 MHz (APP)
ATIS: 116.9 MHz (ATIS)
GCA: 127.5 MHz (GCA)
GND: 121.85 MHz (GND)
TWR: 124.1 MHz (TWR)

Runways (top)

01/19: 11,001 x 148 ft (3,353 x 45 m) — paved — lighted

06/24: 6,299 x 148 ft (1,920 x 45 m) — paved — lighted

Latest comments (top)

Main air force base: This is the main base of the SAAF. [read]

More... (top)

See also NOTAMs and nearby airports and navaids, or visit the Waterkloof Air Force Base page at the main OurAirports website..